Joshua David Esper — WDD8059 — position and weather

sailwx.info

Track history (hours):
 
Tides and Currents Weather Stations Pressure Air Temp Water Temp Dewpoint Dewpoint Depression Visibility Wind Speed Wind Dir Waves Ship Positions

Joshua David Esper

Owner: Marquette Transportation Company LLC, Paducah, KY. More information available from US FCC via Universal Licensing System and Coast Guard Vessel Documentation Center.

Last reported at 2018-Jan-03 19:09 UTC. Time now 2018-Jan-22 14:08 UTC.
Position N 31°57' W 091°11'.
Warning: this ship's position is 18 days out of date.

Length 42 m; draft 2.7 m.

Type: Tow > 200 m length. MMSI: 367194680.

Date/timePositionNaut miles runAvg speedWind from/ knotsBaromVisibWave heightAir tempDewpointWater temp
2018-Jan-03 19:09N 31°57' W 091°11'6 9.1
2018-Jan-03 18:32N 31°60' W 091°05'310.4
2018-Jan-03 18:12N 32°03' W 091°03'2 9.1
2018-Jan-03 17:57N 32°05' W 091°04'3 6.6
2018-Jan-03 17:27N 32°08' W 091°05'4 9.0
2018-Jan-03 17:00N 32°08' W 091°01'3 6.2
2018-Jan-03 16:29N 32°11' W 091°00'0 0.2
2018-Jan-03 16:00N 32°11' W 091°00'0 0.0
2018-Jan-03 15:30N 32°11' W 091°00'0 0.0
2018-Jan-03 15:00N 32°11' W 091°00'0 0.0
2018-Jan-03 14:30N 32°11' W 091°00'0 0.0
2018-Jan-03 14:00N 32°11' W 091°00'0 0.0
2018-Jan-03 13:30N 32°11' W 091°00'0 0.0
2018-Jan-03 13:00N 32°11' W 091°00'0 0.0
2018-Jan-03 12:30N 32°11' W 091°00'0 0.0
2018-Jan-03 12:00N 32°11' W 091°00'0 0.0
2018-Jan-03 11:30N 32°11' W 091°00'0 0.0
2018-Jan-03 11:00N 32°11' W 091°00'0 0.0
2018-Jan-03 10:30N 32°11' W 091°00'0 0.0
2018-Jan-03 10:00N 32°11' W 091°00'0 0.0
2018-Jan-03 09:30N 32°11' W 091°00'0 0.0
2018-Jan-03 09:00N 32°11' W 091°00'0 0.0
2018-Jan-03 08:30N 32°11' W 091°00'0 0.0
2018-Jan-03 08:00N 32°11' W 091°00'0 0.0
2018-Jan-03 07:30N 32°11' W 091°00'0 0.0
2018-Jan-03 07:00N 32°11' W 091°00'0 0.0
2018-Jan-03 06:30N 32°11' W 091°00'0 0.0
2018-Jan-03 06:00N 32°11' W 091°00'0 0.0
2018-Jan-03 05:30N 32°11' W 091°00'0 0.0
2018-Jan-03 05:00N 32°11' W 091°00'0 0.0
2018-Jan-03 04:30N 32°11' W 091°00'0 0.0
2018-Jan-03 04:00N 32°11' W 091°00'0 0.0
2018-Jan-03 03:30N 32°11' W 091°00'0 0.0
2018-Jan-03 03:00N 32°11' W 091°00'0 0.0
2018-Jan-03 02:30N 32°11' W 091°00'0 0.0
2018-Jan-03 02:00N 32°11' W 091°00'0 0.0
2018-Jan-03 01:30N 32°11' W 091°00'0 0.0
2018-Jan-03 01:00N 32°11' W 091°00'0 0.0
2018-Jan-03 00:30N 32°11' W 091°00'0 0.0
2018-Jan-03 00:00N 32°11' W 091°00'0 0.0
2018-Jan-02 23:30N 32°11' W 091°00'0 0.0
2018-Jan-02 23:00N 32°11' W 091°00'0 0.0
2018-Jan-02 22:30N 32°11' W 091°00'0 0.0
2018-Jan-02 22:00N 32°11' W 091°00'0 0.0
2018-Jan-02 21:30N 32°11' W 091°00'0 0.0
2018-Jan-02 21:00N 32°11' W 091°00'1 1.1
2018-Jan-02 20:30N 32°11' W 090°60'3 5.6
2018-Jan-02 20:00N 32°14' W 090°59'510.1
2018-Jan-02 19:30N 32°18' W 090°55'3 6.3
2018-Jan-02 19:00N 32°21' W 090°57'4 7.0
2018-Jan-02 18:30N 32°23' W 090°60'4 8.6
2018-Jan-02 18:00N 32°26' W 091°03'5 9.3
2018-Jan-02 17:30N 32°30' W 091°07'5 9.5
2018-Jan-02 17:00N 32°35' W 091°07'  
Track history (hours):
 
Tides and Currents Weather Stations Pressure Air Temp Water Temp Dewpoint Dewpoint Depression Visibility Wind Speed Wind Dir Waves Ship Positions

Joshua David Esper

Owner: Marquette Transportation Company LLC, Paducah, KY. More information available from US FCC via Universal Licensing System and Coast Guard Vessel Documentation Center.

Last reported at 2018-Jan-03 19:09 UTC. Time now 2018-Jan-22 14:08 UTC.
Position N 31°57' W 091°11'.
Warning: this ship's position is 18 days out of date.

Length 42 m; draft 2.7 m.

Type: Tow > 200 m length. MMSI: 367194680.

Date/timePositionNaut miles runAvg speedWind from/ knotsBaromVisibWave heightAir tempDewpointWater temp
2018-Jan-03 19:09N 31°57' W 091°11'6 9.1
2018-Jan-03 18:32N 31°60' W 091°05'310.4
2018-Jan-03 18:12N 32°03' W 091°03'2 9.1
2018-Jan-03 17:57N 32°05' W 091°04'3 6.6
2018-Jan-03 17:27N 32°08' W 091°05'4 9.0
2018-Jan-03 17:00N 32°08' W 091°01'3 6.2
2018-Jan-03 16:29N 32°11' W 091°00'0 0.2
2018-Jan-03 16:00N 32°11' W 091°00'0 0.0
2018-Jan-03 15:30N 32°11' W 091°00'0 0.0
2018-Jan-03 15:00N 32°11' W 091°00'0 0.0
2018-Jan-03 14:30N 32°11' W 091°00'0 0.0
2018-Jan-03 14:00N 32°11' W 091°00'0 0.0
2018-Jan-03 13:30N 32°11' W 091°00'0 0.0
2018-Jan-03 13:00N 32°11' W 091°00'0 0.0
2018-Jan-03 12:30N 32°11' W 091°00'0 0.0
2018-Jan-03 12:00N 32°11' W 091°00'0 0.0
2018-Jan-03 11:30N 32°11' W 091°00'0 0.0
2018-Jan-03 11:00N 32°11' W 091°00'0 0.0
2018-Jan-03 10:30N 32°11' W 091°00'0 0.0
2018-Jan-03 10:00N 32°11' W 091°00'0 0.0
2018-Jan-03 09:30N 32°11' W 091°00'0 0.0
2018-Jan-03 09:00N 32°11' W 091°00'0 0.0
2018-Jan-03 08:30N 32°11' W 091°00'0 0.0
2018-Jan-03 08:00N 32°11' W 091°00'0 0.0
2018-Jan-03 07:30N 32°11' W 091°00'0 0.0
2018-Jan-03 07:00N 32°11' W 091°00'0 0.0
2018-Jan-03 06:30N 32°11' W 091°00'0 0.0
2018-Jan-03 06:00N 32°11' W 091°00'0 0.0
2018-Jan-03 05:30N 32°11' W 091°00'0 0.0
2018-Jan-03 05:00N 32°11' W 091°00'0 0.0
2018-Jan-03 04:30N 32°11' W 091°00'0 0.0
2018-Jan-03 04:00N 32°11' W 091°00'0 0.0
2018-Jan-03 03:30N 32°11' W 091°00'0 0.0
2018-Jan-03 03:00N 32°11' W 091°00'0 0.0
2018-Jan-03 02:30N 32°11' W 091°00'0 0.0
2018-Jan-03 02:00N 32°11' W 091°00'0 0.0
2018-Jan-03 01:30N 32°11' W 091°00'0 0.0
2018-Jan-03 01:00N 32°11' W 091°00'0 0.0
2018-Jan-03 00:30N 32°11' W 091°00'0 0.0
2018-Jan-03 00:00N 32°11' W 091°00'0 0.0
2018-Jan-02 23:30N 32°11' W 091°00'0 0.0
2018-Jan-02 23:00N 32°11' W 091°00'0 0.0
2018-Jan-02 22:30N 32°11' W 091°00'0 0.0
2018-Jan-02 22:00N 32°11' W 091°00'0 0.0
2018-Jan-02 21:30N 32°11' W 091°00'0 0.0
2018-Jan-02 21:00N 32°11' W 091°00'1 1.1
2018-Jan-02 20:30N 32°11' W 090°60'3 5.6
2018-Jan-02 20:00N 32°14' W 090°59'510.1
2018-Jan-02 19:30N 32°18' W 090°55'3 6.3
2018-Jan-02 19:00N 32°21' W 090°57'4 7.0
2018-Jan-02 18:30N 32°23' W 090°60'4 8.6
2018-Jan-02 18:00N 32°26' W 091°03'5 9.3
2018-Jan-02 17:30N 32°30' W 091°07'5 9.5
2018-Jan-02 17:00N 32°35' W 091°07'  

Dump ship's entire track history